sensor_id;sensor_type;location;lat;lon;timestamp;P1;durP1;ratioP1;P2;durP2;ratioP2
13941;SDS011;7043;51.630;7.254;2023-04-25T00:00:47;12.47;;;6.80;;
13941;SDS011;7043;51.630;7.254;2023-04-25T00:03:13;12.70;;;7.00;;
13941;SDS011;7043;51.630;7.254;2023-04-25T00:05:39;12.87;;;7.33;;
13941;SDS011;7043;51.630;7.254;2023-04-25T00:08:05;10.50;;;6.47;;
13941;SDS011;7043;51.630;7.254;2023-04-25T00:10:31;9.60;;;6.57;;
13941;SDS011;7043;51.630;7.254;2023-04-25T00:12:57;13.07;;;6.67;;
13941;SDS011;7043;51.630;7.254;2023-04-25T00:15:23;10.83;;;5.97;;
13941;SDS011;7043;51.630;7.254;2023-04-25T00:17:49;13.93;;;6.03;;
13941;SDS011;7043;51.630;7.254;2023-04-25T00:20:17;9.43;;;6.03;;
13941;SDS011;7043;51.630;7.254;2023-04-25T00:22:43;13.83;;;6.90;;
13941;SDS011;7043;51.630;7.254;2023-04-25T00:25:10;12.07;;;6.83;;
13941;SDS011;7043;51.630;7.254;2023-04-25T00:27:36;13.07;;;6.50;;
13941;SDS011;7043;51.630;7.254;2023-04-25T00:30:04;9.97;;;6.17;;
13941;SDS011;7043;51.630;7.254;2023-04-25T00:32:30;15.43;;;6.27;;
13941;SDS011;7043;51.630;7.254;2023-04-25T00:34:56;11.47;;;6.50;;
13941;SDS011;7043;51.630;7.254;2023-04-25T00:37:22;11.67;;;6.77;;
13941;SDS011;7043;51.630;7.254;2023-04-25T00:39:48;11.80;;;7.57;;
13941;SDS011;7043;51.630;7.254;2023-04-25T00:42:15;11.77;;;6.43;;
13941;SDS011;7043;51.630;7.254;2023-04-25T00:44:41;11.77;;;6.93;;
13941;SDS011;7043;51.630;7.254;2023-04-25T00:47:07;14.40;;;6.87;;
13941;SDS011;7043;51.630;7.254;2023-04-25T00:49:33;11.73;;;6.10;;
13941;SDS011;7043;51.630;7.254;2023-04-25T00:51:59;9.33;;;6.03;;
13941;SDS011;7043;51.630;7.254;2023-04-25T00:54:26;9.30;;;6.33;;
13941;SDS011;7043;51.630;7.254;2023-04-25T00:56:52;10.40;;;6.33;;
13941;SDS011;7043;51.630;7.254;2023-04-25T00:59:18;12.13;;;5.90;;
13941;SDS011;7043;51.630;7.254;2023-04-25T01:01:45;13.67;;;6.53;;
13941;SDS011;7043;51.630;7.254;2023-04-25T01:04:11;11.43;;;6.87;;
13941;SDS011;7043;51.630;7.254;2023-04-25T01:06:37;12.87;;;6.33;;
13941;SDS011;7043;51.630;7.254;2023-04-25T01:09:03;10.03;;;6.03;;
13941;SDS011;7043;51.630;7.254;2023-04-25T01:11:30;9.50;;;7.10;;
13941;SDS011;7043;51.630;7.254;2023-04-25T01:13:56;13.17;;;6.93;;
13941;SDS011;7043;51.630;7.254;2023-04-25T01:16:22;14.30;;;7.07;;
13941;SDS011;7043;51.630;7.254;2023-04-25T01:18:55;9.50;;;6.47;;
13941;SDS011;7043;51.630;7.254;2023-04-25T01:21:21;11.13;;;6.50;;
13941;SDS011;7043;51.630;7.254;2023-04-25T01:23:47;10.90;;;6.50;;
13941;SDS011;7043;51.630;7.254;2023-04-25T01:26:13;9.23;;;6.17;;
13941;SDS011;7043;51.630;7.254;2023-04-25T01:28:39;11.53;;;6.70;;
13941;SDS011;7043;51.630;7.254;2023-04-25T01:31:06;10.07;;;5.97;;
13941;SDS011;7043;51.630;7.254;2023-04-25T01:33:32;12.73;;;6.80;;
13941;SDS011;7043;51.630;7.254;2023-04-25T01:35:58;10.03;;;5.80;;
13941;SDS011;7043;51.630;7.254;2023-04-25T01:38:25;12.03;;;6.40;;
13941;SDS011;7043;51.630;7.254;2023-04-25T01:40:51;12.43;;;6.07;;
13941;SDS011;7043;51.630;7.254;2023-04-25T01:43:17;11.57;;;6.50;;
13941;SDS011;7043;51.630;7.254;2023-04-25T01:45:43;11.90;;;5.87;;
13941;SDS011;7043;51.630;7.254;2023-04-25T01:48:10;16.73;;;6.33;;
13941;SDS011;7043;51.630;7.254;2023-04-25T01:50:38;10.63;;;6.47;;
13941;SDS011;7043;51.630;7.254;2023-04-25T01:53:04;12.00;;;6.40;;
13941;SDS011;7043;51.630;7.254;2023-04-25T01:55:30;12.50;;;6.30;;
13941;SDS011;7043;51.630;7.254;2023-04-25T01:57:56;12.43;;;6.57;;
13941;SDS011;7043;51.630;7.254;2023-04-25T02:00:23;12.67;;;7.20;;
13941;SDS011;7043;51.630;7.254;2023-04-25T02:02:50;12.17;;;6.77;;
13941;SDS011;7043;51.630;7.254;2023-04-25T02:05:18;12.03;;;7.07;;
13941;SDS011;7043;51.630;7.254;2023-04-25T02:07:44;11.70;;;6.60;;
13941;SDS011;7043;51.630;7.254;2023-04-25T02:10:10;13.47;;;6.80;;
13941;SDS011;7043;51.630;7.254;2023-04-25T02:12:36;10.47;;;6.73;;
13941;SDS011;7043;51.630;7.254;2023-04-25T02:15:02;12.07;;;7.30;;
13941;SDS011;7043;51.630;7.254;2023-04-25T02:17:28;13.00;;;7.33;;
13941;SDS011;7043;51.630;7.254;2023-04-25T02:19:54;13.00;;;7.37;;
13941;SDS011;7043;51.630;7.254;2023-04-25T02:22:20;12.57;;;8.63;;
13941;SDS011;7043;51.630;7.254;2023-04-25T02:24:46;12.23;;;6.63;;
13941;SDS011;7043;51.630;7.254;2023-04-25T02:27:12;17.73;;;8.70;;
13941;SDS011;7043;51.630;7.254;2023-04-25T02:29:38;14.93;;;7.97;;
13941;SDS011;7043;51.630;7.254;2023-04-25T02:32:04;14.30;;;7.60;;
13941;SDS011;7043;51.630;7.254;2023-04-25T02:34:30;18.00;;;8.93;;
13941;SDS011;7043;51.630;7.254;2023-04-25T02:36:56;16.07;;;8.40;;
13941;SDS011;7043;51.630;7.254;2023-04-25T02:39:22;18.07;;;8.10;;
13941;SDS011;7043;51.630;7.254;2023-04-25T02:41:50;12.73;;;8.30;;
13941;SDS011;7043;51.630;7.254;2023-04-25T02:44:15;13.93;;;8.10;;
13941;SDS011;7043;51.630;7.254;2023-04-25T02:46:41;12.70;;;7.27;;
13941;SDS011;7043;51.630;7.254;2023-04-25T02:49:07;14.20;;;8.07;;
13941;SDS011;7043;51.630;7.254;2023-04-25T02:51:33;12.40;;;8.07;;
13941;SDS011;7043;51.630;7.254;2023-04-25T02:53:59;12.07;;;7.40;;
13941;SDS011;7043;51.630;7.254;2023-04-25T02:56:25;15.03;;;8.23;;
13941;SDS011;7043;51.630;7.254;2023-04-25T02:58:52;13.07;;;9.00;;
13941;SDS011;7043;51.630;7.254;2023-04-25T03:01:18;12.57;;;8.43;;
13941;SDS011;7043;51.630;7.254;2023-04-25T03:03:44;14.70;;;8.07;;
13941;SDS011;7043;51.630;7.254;2023-04-25T03:06:10;15.43;;;7.80;;
13941;SDS011;7043;51.630;7.254;2023-04-25T03:08:36;15.00;;;8.07;;
13941;SDS011;7043;51.630;7.254;2023-04-25T03:11:02;13.10;;;8.17;;
13941;SDS011;7043;51.630;7.254;2023-04-25T03:13:28;14.33;;;7.97;;
13941;SDS011;7043;51.630;7.254;2023-04-25T03:15:54;14.33;;;7.60;;
13941;SDS011;7043;51.630;7.254;2023-04-25T03:18:20;13.73;;;8.43;;
13941;SDS011;7043;51.630;7.254;2023-04-25T03:20:46;14.77;;;8.17;;
13941;SDS011;7043;51.630;7.254;2023-04-25T03:23:12;13.73;;;8.03;;
13941;SDS011;7043;51.630;7.254;2023-04-25T03:25:38;14.40;;;7.37;;
13941;SDS011;7043;51.630;7.254;2023-04-25T03:28:05;15.50;;;8.33;;
13941;SDS011;7043;51.630;7.254;2023-04-25T03:30:31;12.77;;;8.13;;
13941;SDS011;7043;51.630;7.254;2023-04-25T03:32:57;17.10;;;9.03;;
13941;SDS011;7043;51.630;7.254;2023-04-25T03:35:23;14.80;;;8.30;;
13941;SDS011;7043;51.630;7.254;2023-04-25T03:37:49;16.83;;;9.13;;
13941;SDS011;7043;51.630;7.254;2023-04-25T03:40:15;17.10;;;7.93;;
13941;SDS011;7043;51.630;7.254;2023-04-25T03:42:41;11.93;;;7.30;;
13941;SDS011;7043;51.630;7.254;2023-04-25T03:45:07;10.97;;;4.53;;
13941;SDS011;7043;51.630;7.254;2023-04-25T03:47:33;10.03;;;4.53;;
13941;SDS011;7043;51.630;7.254;2023-04-25T03:49:59;7.90;;;5.60;;
13941;SDS011;7043;51.630;7.254;2023-04-25T03:52:27;9.70;;;5.50;;
13941;SDS011;7043;51.630;7.254;2023-04-25T03:54:53;7.53;;;3.90;;
13941;SDS011;7043;51.630;7.254;2023-04-25T03:57:18;8.23;;;3.20;;
13941;SDS011;7043;51.630;7.254;2023-04-25T03:59:44;7.73;;;3.13;;
13941;SDS011;7043;51.630;7.254;2023-04-25T04:02:10;8.33;;;3.43;;
13941;SDS011;7043;51.630;7.254;2023-04-25T04:04:36;8.40;;;3.53;;
13941;SDS011;7043;51.630;7.254;2023-04-25T04:07:02;8.60;;;3.77;;
13941;SDS011;7043;51.630;7.254;2023-04-25T04:09:28;9.67;;;3.73;;
13941;SDS011;7043;51.630;7.254;2023-04-25T04:11:54;7.63;;;4.07;;
13941;SDS011;7043;51.630;7.254;2023-04-25T04:14:20;7.43;;;3.70;;
13941;SDS011;7043;51.630;7.254;2023-04-25T04:16:46;7.73;;;4.30;;
13941;SDS011;7043;51.630;7.254;2023-04-25T04:19:12;9.63;;;4.73;;
13941;SDS011;7043;51.630;7.254;2023-04-25T04:21:38;9.40;;;4.20;;
13941;SDS011;7043;51.630;7.254;2023-04-25T04:24:04;10.10;;;4.33;;
13941;SDS011;7043;51.630;7.254;2023-04-25T04:26:31;10.50;;;4.47;;
13941;SDS011;7043;51.630;7.254;2023-04-25T04:28:59;8.93;;;4.30;;
13941;SDS011;7043;51.630;7.254;2023-04-25T04:31:25;13.60;;;4.70;;
13941;SDS011;7043;51.630;7.254;2023-04-25T04:33:51;13.73;;;4.73;;
13941;SDS011;7043;51.630;7.254;2023-04-25T04:36:17;9.73;;;4.80;;
13941;SDS011;7043;51.630;7.254;2023-04-25T04:38:48;11.90;;;4.67;;
13941;SDS011;7043;51.630;7.254;2023-04-25T04:41:14;9.27;;;4.97;;
13941;SDS011;7043;51.630;7.254;2023-04-25T04:43:39;9.63;;;4.70;;
13941;SDS011;7043;51.630;7.254;2023-04-25T04:46:06;11.70;;;4.97;;
13941;SDS011;7043;51.630;7.254;2023-04-25T04:48:32;9.80;;;4.83;;
13941;SDS011;7043;51.630;7.254;2023-04-25T04:50:59;9.40;;;5.23;;
13941;SDS011;7043;51.630;7.254;2023-04-25T04:53:25;12.43;;;5.80;;
13941;SDS011;7043;51.630;7.254;2023-04-25T04:55:51;10.30;;;4.97;;
13941;SDS011;7043;51.630;7.254;2023-04-25T04:58:17;9.23;;;4.47;;
13941;SDS011;7043;51.630;7.254;2023-04-25T05:00:44;10.93;;;4.77;;
13941;SDS011;7043;51.630;7.254;2023-04-25T05:03:10;13.83;;;5.30;;
13941;SDS011;7043;51.630;7.254;2023-04-25T05:05:36;9.20;;;5.17;;
13941;SDS011;7043;51.630;7.254;2023-04-25T05:08:05;10.27;;;4.97;;
13941;SDS011;7043;51.630;7.254;2023-04-25T05:10:31;9.17;;;4.93;;
13941;SDS011;7043;51.630;7.254;2023-04-25T05:12:56;10.47;;;5.10;;
13941;SDS011;7043;51.630;7.254;2023-04-25T05:15:22;11.23;;;5.30;;
13941;SDS011;7043;51.630;7.254;2023-04-25T05:17:48;12.07;;;5.47;;
13941;SDS011;7043;51.630;7.254;2023-04-25T05:20:14;13.57;;;4.97;;
13941;SDS011;7043;51.630;7.254;2023-04-25T05:22:41;11.77;;;5.60;;
13941;SDS011;7043;51.630;7.254;2023-04-25T05:25:07;10.57;;;5.47;;
13941;SDS011;7043;51.630;7.254;2023-04-25T05:27:34;13.37;;;5.93;;
13941;SDS011;7043;51.630;7.254;2023-04-25T05:30:00;12.87;;;6.57;;
13941;SDS011;7043;51.630;7.254;2023-04-25T05:32:26;11.87;;;6.23;;
13941;SDS011;7043;51.630;7.254;2023-04-25T05:34:52;11.93;;;5.83;;
13941;SDS011;7043;51.630;7.254;2023-04-25T05:37:18;15.00;;;6.40;;
13941;SDS011;7043;51.630;7.254;2023-04-25T05:39:44;15.73;;;7.37;;
13941;SDS011;7043;51.630;7.254;2023-04-25T05:42:10;15.13;;;7.43;;
13941;SDS011;7043;51.630;7.254;2023-04-25T05:44:36;15.50;;;7.77;;
13941;SDS011;7043;51.630;7.254;2023-04-25T05:47:02;14.90;;;7.73;;
13941;SDS011;7043;51.630;7.254;2023-04-25T05:49:29;13.80;;;8.50;;
13941;SDS011;7043;51.630;7.254;2023-04-25T05:51:55;18.07;;;8.60;;
13941;SDS011;7043;51.630;7.254;2023-04-25T05:54:21;15.33;;;8.63;;
13941;SDS011;7043;51.630;7.254;2023-04-25T05:56:47;17.17;;;8.40;;
13941;SDS011;7043;51.630;7.254;2023-04-25T05:59:13;18.27;;;7.63;;
13941;SDS011;7043;51.630;7.254;2023-04-25T06:01:39;14.77;;;8.03;;
13941;SDS011;7043;51.630;7.254;2023-04-25T06:04:05;16.20;;;8.10;;
13941;SDS011;7043;51.630;7.254;2023-04-25T06:06:31;15.63;;;8.33;;
13941;SDS011;7043;51.630;7.254;2023-04-25T06:08:57;16.57;;;8.73;;
13941;SDS011;7043;51.630;7.254;2023-04-25T06:11:23;18.60;;;8.07;;
13941;SDS011;7043;51.630;7.254;2023-04-25T06:13:49;19.87;;;9.27;;
13941;SDS011;7043;51.630;7.254;2023-04-25T06:16:15;19.87;;;9.13;;
13941;SDS011;7043;51.630;7.254;2023-04-25T06:18:41;21.60;;;9.03;;
13941;SDS011;7043;51.630;7.254;2023-04-25T06:21:07;21.03;;;8.97;;
13941;SDS011;7043;51.630;7.254;2023-04-25T06:23:33;16.00;;;8.03;;
13941;SDS011;7043;51.630;7.254;2023-04-25T06:25:59;17.97;;;7.57;;
13941;SDS011;7043;51.630;7.254;2023-04-25T06:28:25;14.93;;;7.23;;
13941;SDS011;7043;51.630;7.254;2023-04-25T06:30:51;18.23;;;7.40;;
13941;SDS011;7043;51.630;7.254;2023-04-25T06:33:17;15.23;;;7.03;;
13941;SDS011;7043;51.630;7.254;2023-04-25T06:35:43;18.27;;;7.33;;
13941;SDS011;7043;51.630;7.254;2023-04-25T06:38:09;16.97;;;7.03;;
13941;SDS011;7043;51.630;7.254;2023-04-25T06:40:35;12.50;;;6.37;;
13941;SDS011;7043;51.630;7.254;2023-04-25T06:43:01;14.20;;;7.17;;
13941;SDS011;7043;51.630;7.254;2023-04-25T06:45:27;13.73;;;6.73;;
13941;SDS011;7043;51.630;7.254;2023-04-25T06:47:53;11.43;;;6.87;;
13941;SDS011;7043;51.630;7.254;2023-04-25T06:50:19;21.63;;;7.20;;
13941;SDS011;7043;51.630;7.254;2023-04-25T06:52:45;16.20;;;7.00;;
13941;SDS011;7043;51.630;7.254;2023-04-25T06:55:11;16.47;;;7.07;;
13941;SDS011;7043;51.630;7.254;2023-04-25T06:57:37;13.80;;;6.67;;
13941;SDS011;7043;51.630;7.254;2023-04-25T07:00:03;12.07;;;7.10;;
13941;SDS011;7043;51.630;7.254;2023-04-25T07:02:36;12.97;;;6.97;;
13941;SDS011;7043;51.630;7.254;2023-04-25T07:05:02;16.80;;;7.50;;
13941;SDS011;7043;51.630;7.254;2023-04-25T07:07:29;16.73;;;7.47;;
13941;SDS011;7043;51.630;7.254;2023-04-25T07:09:56;13.50;;;7.03;;
13941;SDS011;7043;51.630;7.254;2023-04-25T07:12:22;14.27;;;5.13;;
13941;SDS011;7043;51.630;7.254;2023-04-25T07:14:48;13.23;;;5.93;;
13941;SDS011;7043;51.630;7.254;2023-04-25T07:17:13;16.13;;;6.77;;
13941;SDS011;7043;51.630;7.254;2023-04-25T07:19:40;16.23;;;5.80;;
13941;SDS011;7043;51.630;7.254;2023-04-25T07:22:06;16.37;;;5.80;;
13941;SDS011;7043;51.630;7.254;2023-04-25T07:24:32;12.60;;;5.13;;
13941;SDS011;7043;51.630;7.254;2023-04-25T07:26:58;13.53;;;5.00;;
13941;SDS011;7043;51.630;7.254;2023-04-25T07:29:26;10.83;;;4.17;;
13941;SDS011;7043;51.630;7.254;2023-04-25T07:31:52;9.00;;;3.40;;
13941;SDS011;7043;51.630;7.254;2023-04-25T07:34:18;11.30;;;4.53;;
13941;SDS011;7043;51.630;7.254;2023-04-25T07:36:44;10.93;;;4.40;;
13941;SDS011;7043;51.630;7.254;2023-04-25T07:39:10;13.83;;;4.87;;
13941;SDS011;7043;51.630;7.254;2023-04-25T07:41:36;10.23;;;4.30;;
13941;SDS011;7043;51.630;7.254;2023-04-25T07:44:02;9.87;;;5.90;;
13941;SDS011;7043;51.630;7.254;2023-04-25T07:46:28;8.33;;;3.93;;
13941;SDS011;7043;51.630;7.254;2023-04-25T07:48:55;14.00;;;4.67;;
13941;SDS011;7043;51.630;7.254;2023-04-25T07:51:20;12.07;;;4.20;;
13941;SDS011;7043;51.630;7.254;2023-04-25T07:53:47;10.30;;;4.03;;
13941;SDS011;7043;51.630;7.254;2023-04-25T07:56:13;13.73;;;4.33;;
13941;SDS011;7043;51.630;7.254;2023-04-25T07:58:39;8.83;;;3.63;;
13941;SDS011;7043;51.630;7.254;2023-04-25T08:01:05;10.63;;;4.23;;
13941;SDS011;7043;51.630;7.254;2023-04-25T08:03:31;13.83;;;3.87;;
13941;SDS011;7043;51.630;7.254;2023-04-25T08:05:57;10.40;;;3.93;;
13941;SDS011;7043;51.630;7.254;2023-04-25T08:08:23;11.50;;;4.50;;
13941;SDS011;7043;51.630;7.254;2023-04-25T08:10:49;6.93;;;3.83;;
13941;SDS011;7043;51.630;7.254;2023-04-25T08:13:15;11.57;;;4.60;;
13941;SDS011;7043;51.630;7.254;2023-04-25T08:15:40;8.93;;;3.80;;
13941;SDS011;7043;51.630;7.254;2023-04-25T08:18:06;11.47;;;3.50;;
13941;SDS011;7043;51.630;7.254;2023-04-25T08:20:32;11.43;;;4.03;;
13941;SDS011;7043;51.630;7.254;2023-04-25T08:22:59;8.23;;;3.37;;
13941;SDS011;7043;51.630;7.254;2023-04-25T08:25:25;10.27;;;3.77;;
13941;SDS011;7043;51.630;7.254;2023-04-25T08:27:51;8.63;;;3.50;;
13941;SDS011;7043;51.630;7.254;2023-04-25T08:30:17;10.17;;;5.23;;
13941;SDS011;7043;51.630;7.254;2023-04-25T08:32:43;9.57;;;3.60;;
13941;SDS011;7043;51.630;7.254;2023-04-25T08:35:09;9.10;;;3.50;;
13941;SDS011;7043;51.630;7.254;2023-04-25T08:37:35;8.70;;;3.10;;
13941;SDS011;7043;51.630;7.254;2023-04-25T08:40:01;11.87;;;3.20;;
13941;SDS011;7043;51.630;7.254;2023-04-25T08:42:31;9.57;;;2.83;;
13941;SDS011;7043;51.630;7.254;2023-04-25T08:45:00;6.07;;;2.60;;
13941;SDS011;7043;51.630;7.254;2023-04-25T08:47:26;9.87;;;3.40;;
13941;SDS011;7043;51.630;7.254;2023-04-25T08:49:53;8.13;;;3.13;;
13941;SDS011;7043;51.630;7.254;2023-04-25T08:52:23;5.10;;;2.50;;
13941;SDS011;7043;51.630;7.254;2023-04-25T08:54:49;7.53;;;2.53;;
13941;SDS011;7043;51.630;7.254;2023-04-25T08:57:16;5.90;;;2.53;;
13941;SDS011;7043;51.630;7.254;2023-04-25T08:59:42;8.53;;;3.10;;
13941;SDS011;7043;51.630;7.254;2023-04-25T09:02:11;7.53;;;2.50;;
13941;SDS011;7043;51.630;7.254;2023-04-25T09:04:40;7.23;;;2.70;;
13941;SDS011;7043;51.630;7.254;2023-04-25T09:07:07;7.87;;;2.90;;
13941;SDS011;7043;51.630;7.254;2023-04-25T09:09:33;6.23;;;2.90;;
13941;SDS011;7043;51.630;7.254;2023-04-25T09:11:59;8.90;;;2.57;;
13941;SDS011;7043;51.630;7.254;2023-04-25T09:14:26;6.97;;;2.80;;
13941;SDS011;7043;51.630;7.254;2023-04-25T09:19:22;6.13;;;3.47;;
13941;SDS011;7043;51.630;7.254;2023-04-25T09:21:54;10.03;;;3.00;;
13941;SDS011;7043;51.630;7.254;2023-04-25T09:24:36;7.53;;;2.97;;
13941;SDS011;7043;51.630;7.254;2023-04-25T09:27:03;6.77;;;2.10;;
13941;SDS011;7043;51.630;7.254;2023-04-25T09:29:38;9.87;;;2.67;;
13941;SDS011;7043;51.630;7.254;2023-04-25T09:32:26;6.70;;;1.93;;
13941;SDS011;7043;51.630;7.254;2023-04-25T09:34:52;6.87;;;2.10;;
13941;SDS011;7043;51.630;7.254;2023-04-25T09:37:19;4.47;;;1.93;;
13941;SDS011;7043;51.630;7.254;2023-04-25T09:39:46;7.10;;;2.07;;
13941;SDS011;7043;51.630;7.254;2023-04-25T09:42:13;5.40;;;2.20;;
13941;SDS011;7043;51.630;7.254;2023-04-25T09:44:46;5.67;;;2.03;;
13941;SDS011;7043;51.630;7.254;2023-04-25T09:47:13;5.13;;;2.00;;
13941;SDS011;7043;51.630;7.254;2023-04-25T09:49:41;6.07;;;2.30;;
13941;SDS011;7043;51.630;7.254;2023-04-25T09:52:07;4.70;;;1.80;;
13941;SDS011;7043;51.630;7.254;2023-04-25T09:54:33;3.33;;;1.70;;
13941;SDS011;7043;51.630;7.254;2023-04-25T09:57:02;4.97;;;1.87;;
13941;SDS011;7043;51.630;7.254;2023-04-25T09:59:33;5.80;;;1.93;;
13941;SDS011;7043;51.630;7.254;2023-04-25T10:02:01;5.33;;;1.77;;
13941;SDS011;7043;51.630;7.254;2023-04-25T10:04:27;7.43;;;2.40;;
13941;SDS011;7043;51.630;7.254;2023-04-25T10:06:54;6.00;;;2.10;;
13941;SDS011;7043;51.630;7.254;2023-04-25T10:09:23;6.63;;;2.30;;
13941;SDS011;7043;51.630;7.254;2023-04-25T10:11:50;4.43;;;2.00;;
13941;SDS011;7043;51.630;7.254;2023-04-25T10:14:17;4.73;;;2.03;;
13941;SDS011;7043;51.630;7.254;2023-04-25T10:16:45;7.33;;;1.90;;
13941;SDS011;7043;51.630;7.254;2023-04-25T10:19:11;6.37;;;1.50;;
13941;SDS011;7043;51.630;7.254;2023-04-25T10:21:44;4.50;;;1.50;;
13941;SDS011;7043;51.630;7.254;2023-04-25T10:24:12;5.50;;;2.00;;
13941;SDS011;7043;51.630;7.254;2023-04-25T10:26:38;7.37;;;2.37;;
13941;SDS011;7043;51.630;7.254;2023-04-25T10:29:04;4.63;;;1.90;;
13941;SDS011;7043;51.630;7.254;2023-04-25T10:31:30;5.90;;;2.30;;
13941;SDS011;7043;51.630;7.254;2023-04-25T10:33:56;4.80;;;1.57;;
13941;SDS011;7043;51.630;7.254;2023-04-25T10:36:23;4.20;;;1.53;;
13941;SDS011;7043;51.630;7.254;2023-04-25T10:38:50;5.00;;;1.93;;
13941;SDS011;7043;51.630;7.254;2023-04-25T10:41:20;5.30;;;1.97;;
13941;SDS011;7043;51.630;7.254;2023-04-25T10:43:46;4.60;;;1.63;;
13941;SDS011;7043;51.630;7.254;2023-04-25T10:48:49;7.70;;;2.07;;
13941;SDS011;7043;51.630;7.254;2023-04-25T10:54:01;7.10;;;2.87;;
13941;SDS011;7043;51.630;7.254;2023-04-25T10:56:31;8.37;;;2.07;;
13941;SDS011;7043;51.630;7.254;2023-04-25T10:59:13;5.60;;;1.90;;
13941;SDS011;7043;51.630;7.254;2023-04-25T11:01:43;6.00;;;1.90;;
13941;SDS011;7043;51.630;7.254;2023-04-25T11:07:28;4.50;;;1.60;;
13941;SDS011;7043;51.630;7.254;2023-04-25T11:09:55;4.97;;;1.37;;
13941;SDS011;7043;51.630;7.254;2023-04-25T11:12:21;2.87;;;1.20;;
13941;SDS011;7043;51.630;7.254;2023-04-25T11:14:50;3.67;;;1.13;;
13941;SDS011;7043;51.630;7.254;2023-04-25T11:17:16;5.40;;;1.30;;
13941;SDS011;7043;51.630;7.254;2023-04-25T11:19:43;7.53;;;1.60;;
13941;SDS011;7043;51.630;7.254;2023-04-25T11:22:09;2.90;;;1.20;;
13941;SDS011;7043;51.630;7.254;2023-04-25T11:24:36;4.17;;;1.47;;
13941;SDS011;7043;51.630;7.254;2023-04-25T11:27:04;3.63;;;1.20;;
13941;SDS011;7043;51.630;7.254;2023-04-25T11:29:31;4.23;;;1.20;;
13941;SDS011;7043;51.630;7.254;2023-04-25T11:31:57;1.90;;;0.80;;
13941;SDS011;7043;51.630;7.254;2023-04-25T11:34:24;2.53;;;1.20;;
13941;SDS011;7043;51.630;7.254;2023-04-25T11:36:50;2.93;;;1.00;;
13941;SDS011;7043;51.630;7.254;2023-04-25T11:39:20;1.23;;;0.90;;
13941;SDS011;7043;51.630;7.254;2023-04-25T11:41:46;4.83;;;1.07;;
13941;SDS011;7043;51.630;7.254;2023-04-25T11:44:15;2.23;;;0.97;;
13941;SDS011;7043;51.630;7.254;2023-04-25T11:46:41;2.70;;;1.43;;
13941;SDS011;7043;51.630;7.254;2023-04-25T11:49:07;3.57;;;1.00;;
13941;SDS011;7043;51.630;7.254;2023-04-25T11:51:43;2.43;;;0.90;;
13941;SDS011;7043;51.630;7.254;2023-04-25T11:54:10;2.50;;;0.87;;
13941;SDS011;7043;51.630;7.254;2023-04-25T11:56:36;2.57;;;0.70;;
13941;SDS011;7043;51.630;7.254;2023-04-25T11:59:03;2.80;;;0.90;;
13941;SDS011;7043;51.630;7.254;2023-04-25T12:01:30;3.73;;;1.00;;
13941;SDS011;7043;51.630;7.254;2023-04-25T12:03:57;3.50;;;1.20;;
13941;SDS011;7043;51.630;7.254;2023-04-25T12:06:27;4.27;;;1.10;;
13941;SDS011;7043;51.630;7.254;2023-04-25T12:09:03;3.10;;;1.00;;
13941;SDS011;7043;51.630;7.254;2023-04-25T12:11:32;2.37;;;0.80;;
13941;SDS011;7043;51.630;7.254;2023-04-25T12:14:02;2.83;;;0.97;;
13941;SDS011;7043;51.630;7.254;2023-04-25T12:16:29;3.63;;;1.07;;
13941;SDS011;7043;51.630;7.254;2023-04-25T12:18:56;2.83;;;0.87;;
13941;SDS011;7043;51.630;7.254;2023-04-25T12:21:27;2.93;;;1.27;;
13941;SDS011;7043;51.630;7.254;2023-04-25T12:23:53;1.63;;;0.67;;
13941;SDS011;7043;51.630;7.254;2023-04-25T12:26:19;3.30;;;0.90;;
13941;SDS011;7043;51.630;7.254;2023-04-25T12:28:45;1.70;;;0.70;;
13941;SDS011;7043;51.630;7.254;2023-04-25T12:31:12;2.87;;;0.80;;
13941;SDS011;7043;51.630;7.254;2023-04-25T12:33:40;4.27;;;0.80;;
13941;SDS011;7043;51.630;7.254;2023-04-25T12:36:07;1.53;;;0.70;;
13941;SDS011;7043;51.630;7.254;2023-04-25T12:38:38;2.73;;;0.80;;
13941;SDS011;7043;51.630;7.254;2023-04-25T12:41:04;2.80;;;0.80;;
13941;SDS011;7043;51.630;7.254;2023-04-25T12:43:30;2.80;;;0.83;;
13941;SDS011;7043;51.630;7.254;2023-04-25T12:45:56;2.53;;;0.97;;
13941;SDS011;7043;51.630;7.254;2023-04-25T12:48:22;3.60;;;1.33;;
13941;SDS011;7043;51.630;7.254;2023-04-25T12:50:49;2.77;;;1.23;;
13941;SDS011;7043;51.630;7.254;2023-04-25T12:53:16;4.37;;;1.43;;
13941;SDS011;7043;51.630;7.254;2023-04-25T12:55:42;3.80;;;0.90;;
13941;SDS011;7043;51.630;7.254;2023-04-25T12:58:10;4.37;;;1.57;;
13941;SDS011;7043;51.630;7.254;2023-04-25T13:00:37;3.87;;;1.10;;
13941;SDS011;7043;51.630;7.254;2023-04-25T13:03:03;5.77;;;3.27;;
13941;SDS011;7043;51.630;7.254;2023-04-25T13:05:29;4.10;;;1.40;;
13941;SDS011;7043;51.630;7.254;2023-04-25T13:07:55;2.80;;;1.13;;
13941;SDS011;7043;51.630;7.254;2023-04-25T13:10:24;5.57;;;1.00;;
13941;SDS011;7043;51.630;7.254;2023-04-25T13:12:50;2.63;;;1.20;;
13941;SDS011;7043;51.630;7.254;2023-04-25T13:15:16;3.40;;;1.23;;
13941;SDS011;7043;51.630;7.254;2023-04-25T13:17:42;1.43;;;1.03;;
13941;SDS011;7043;51.630;7.254;2023-04-25T13:20:08;2.90;;;1.00;;
13941;SDS011;7043;51.630;7.254;2023-04-25T13:22:35;3.13;;;1.00;;
13941;SDS011;7043;51.630;7.254;2023-04-25T13:25:02;1.93;;;0.97;;
13941;SDS011;7043;51.630;7.254;2023-04-25T13:27:28;4.63;;;0.97;;
13941;SDS011;7043;51.630;7.254;2023-04-25T13:29:55;4.70;;;1.20;;
13941;SDS011;7043;51.630;7.254;2023-04-25T13:32:21;3.20;;;1.10;;
13941;SDS011;7043;51.630;7.254;2023-04-25T13:34:47;4.97;;;1.33;;
13941;SDS011;7043;51.630;7.254;2023-04-25T13:37:13;3.10;;;1.10;;
13941;SDS011;7043;51.630;7.254;2023-04-25T13:39:39;2.17;;;0.90;;
13941;SDS011;7043;51.630;7.254;2023-04-25T13:42:05;3.37;;;1.20;;
13941;SDS011;7043;51.630;7.254;2023-04-25T13:44:31;2.27;;;0.90;;
13941;SDS011;7043;51.630;7.254;2023-04-25T13:46:57;4.13;;;1.40;;
13941;SDS011;7043;51.630;7.254;2023-04-25T13:49:25;2.27;;;0.97;;
13941;SDS011;7043;51.630;7.254;2023-04-25T13:51:51;2.07;;;0.90;;
13941;SDS011;7043;51.630;7.254;2023-04-25T13:54:17;2.17;;;1.00;;
13941;SDS011;7043;51.630;7.254;2023-04-25T13:56:43;3.27;;;1.50;;
13941;SDS011;7043;51.630;7.254;2023-04-25T13:59:10;4.97;;;1.50;;
13941;SDS011;7043;51.630;7.254;2023-04-25T14:01:36;5.20;;;1.50;;
13941;SDS011;7043;51.630;7.254;2023-04-25T14:04:03;3.97;;;1.63;;
13941;SDS011;7043;51.630;7.254;2023-04-25T14:06:29;2.73;;;1.40;;
13941;SDS011;7043;51.630;7.254;2023-04-25T14:08:55;4.03;;;1.47;;
13941;SDS011;7043;51.630;7.254;2023-04-25T14:11:21;3.90;;;1.33;;
13941;SDS011;7043;51.630;7.254;2023-04-25T14:13:47;3.93;;;1.20;;
13941;SDS011;7043;51.630;7.254;2023-04-25T14:16:16;2.40;;;1.40;;
13941;SDS011;7043;51.630;7.254;2023-04-25T14:18:42;3.07;;;1.03;;
13941;SDS011;7043;51.630;7.254;2023-04-25T14:21:10;3.30;;;1.43;;
13941;SDS011;7043;51.630;7.254;2023-04-25T14:23:36;2.63;;;1.33;;
13941;SDS011;7043;51.630;7.254;2023-04-25T14:26:02;1.90;;;0.80;;
13941;SDS011;7043;51.630;7.254;2023-04-25T14:28:28;2.80;;;0.90;;
13941;SDS011;7043;51.630;7.254;2023-04-25T14:30:54;3.93;;;1.10;;
13941;SDS011;7043;51.630;7.254;2023-04-25T14:33:21;2.57;;;1.17;;
13941;SDS011;7043;51.630;7.254;2023-04-25T14:35:48;2.53;;;1.30;;
13941;SDS011;7043;51.630;7.254;2023-04-25T14:38:14;4.43;;;1.20;;
13941;SDS011;7043;51.630;7.254;2023-04-25T14:40:40;3.30;;;1.20;;
13941;SDS011;7043;51.630;7.254;2023-04-25T14:43:06;2.47;;;1.10;;
13941;SDS011;7043;51.630;7.254;2023-04-25T14:45:33;3.90;;;1.40;;
13941;SDS011;7043;51.630;7.254;2023-04-25T14:47:59;4.83;;;1.13;;
13941;SDS011;7043;51.630;7.254;2023-04-25T14:50:25;3.90;;;1.50;;
13941;SDS011;7043;51.630;7.254;2023-04-25T14:52:51;3.07;;;1.30;;
13941;SDS011;7043;51.630;7.254;2023-04-25T14:55:17;3.70;;;1.13;;
13941;SDS011;7043;51.630;7.254;2023-04-25T14:57:43;2.77;;;1.10;;
13941;SDS011;7043;51.630;7.254;2023-04-25T15:00:10;3.60;;;1.30;;
13941;SDS011;7043;51.630;7.254;2023-04-25T15:02:40;3.27;;;1.20;;